Time;durP1;ratioP1;P1;durP2;ratioP2;P2;SDS_P1;SDS_P2;PMS_P1;PMS_P2;Temp;Humidity;BMP_temperature;BMP_pressure;BME280_temperature;BME280_humidity;BME280_pressure;Samples;Min_cycle;Max_cycle;Signal;HPM_P1;HPM_P2
2022/02/18 00:01:56;;;;;;;2.50;2.30;;;8.90;5.50;;;;;;5054417;28;20087;-73
2022/02/18 00:04:22;;;;;;;1.02;0.90;;;8.90;2.30;;;;;;5053999;28;20114;-73
2022/02/18 00:06:48;;;;;;;1.27;1.17;;;9.00;78.20;;;;;;5054248;28;20037;-73
2022/02/18 00:09:14;;;;;;;6.50;5.30;;;9.00;30.20;;;;;;5053990;28;20041;-73
2022/02/18 00:11:39;;;;;;;15.65;10.38;;;9.00;56.20;;;;;;5053894;28;20046;-73
2022/02/18 00:14:05;;;;;;;10.07;7.55;;;8.90;59.90;;;;;;5054111;28;20064;-73
2022/02/18 00:16:31;;;;;;;10.05;7.15;;;8.80;4.80;;;;;;5053892;28;20040;-73
2022/02/18 00:18:57;;;;;;;5.70;3.92;;;8.70;20.50;;;;;;5054072;28;20094;-73
2022/02/18 00:21:22;;;;;;;17.10;10.57;;;8.70;95.60;;;;;;5054250;28;20037;-73
2022/02/18 00:23:48;;;;;;;7.65;6.03;;;8.70;99.90;;;;;;5054211;28;20053;-73
2022/02/18 00:26:14;;;;;;;10.23;6.75;;;8.60;99.90;;;;;;5054063;28;20032;-73
2022/02/18 00:28:40;;;;;;;7.70;5.18;;;8.50;99.90;;;;;;5053882;28;20047;-73
2022/02/18 00:31:06;;;;;;;12.18;10.43;;;8.50;99.90;;;;;;5053735;28;20125;-73
2022/02/18 00:33:32;;;;;;;6.50;5.63;;;8.50;99.90;;;;;;5054224;28;20076;-73
2022/02/18 00:35:58;;;;;;;9.32;6.45;;;8.40;99.90;;;;;;5053982;28;20048;-73
2022/02/18 00:38:24;;;;;;;6.85;4.93;;;8.40;99.90;;;;;;5054538;28;20387;-73
2022/02/18 00:40:51;;;;;;;4.82;2.35;;;8.40;99.90;;;;;;5053842;28;20498;-73
2022/02/18 00:43:16;;;;;;;8.32;5.57;;;8.50;99.90;;;;;;5053989;28;20548;-73
2022/02/18 00:45:42;;;;;;;4.28;2.97;;;8.40;99.90;;;;;;5054111;28;20041;-73
2022/02/18 00:48:09;;;;;;;5.47;4.20;;;8.30;99.90;;;;;;5054321;28;20037;-73
2022/02/18 00:50:35;;;;;;;2.67;2.10;;;8.20;99.90;;;;;;5053744;28;20483;-73
2022/02/18 00:53:02;;;;;;;1.95;1.75;;;8.20;99.90;;;;;;5054146;28;20128;-73
2022/02/18 00:55:28;;;;;;;1.30;1.20;;;8.40;99.90;;;;;;5056336;28;20105;-73
2022/02/18 00:57:54;;;;;;;2.45;1.05;;;8.40;99.90;;;;;;5056948;28;20128;-73
2022/02/18 01:00:21;;;;;;;2.25;1.00;;;8.20;99.90;;;;;;5057632;28;20067;-73
2022/02/18 01:02:47;;;;;;;1.00;0.88;;;8.20;99.90;;;;;;5056704;28;20043;-73
2022/02/18 01:05:13;;;;;;;5.72;3.70;;;8.10;99.90;;;;;;5057009;28;20147;-73
2022/02/18 01:07:40;;;;;;;3.38;2.80;;;8.10;99.90;;;;;;5056954;28;20041;-73
2022/02/18 01:10:07;;;;;;;11.35;8.82;;;8.10;99.90;;;;;;5056873;28;20041;-73
2022/02/18 01:12:33;;;;;;;14.27;11.60;;;8.10;99.90;;;;;;5056858;28;20060;-73
2022/02/18 01:14:59;;;;;;;21.45;15.52;;;8.10;99.90;;;;;;5057129;28;20072;-73
2022/02/18 01:17:25;;;;;;;30.35;18.77;;;8.20;99.90;;;;;;5057079;28;20045;-73
2022/02/18 01:19:51;;;;;;;19.30;14.57;;;8.10;99.90;;;;;;5057749;28;20033;-73
2022/02/18 01:22:17;;;;;;;17.65;13.20;;;8.00;99.90;;;;;;5057075;28;20086;-73
2022/02/18 01:24:43;;;;;;;10.93;8.13;;;7.90;99.90;;;;;;5057144;28;20052;-73
2022/02/18 01:27:09;;;;;;;14.07;9.00;;;7.80;99.90;;;;;;5057076;28;20128;-73
2022/02/18 01:29:39;;;;;;;14.32;9.57;;;7.70;99.90;;;;;;5057159;28;20132;-73
2022/02/18 01:32:10;;;;;;;12.48;8.25;;;7.80;99.90;;;;;;5057096;28;20040;-73
2022/02/18 01:34:36;;;;;;;13.30;7.80;;;7.80;99.90;;;;;;5057378;28;20045;-73
2022/02/18 01:37:03;;;;;;;7.03;5.55;;;7.70;99.90;;;;;;5056837;28;20068;-73
2022/02/18 01:39:29;;;;;;;11.88;8.13;;;7.60;99.90;;;;;;5056777;28;20087;-73
2022/02/18 01:41:56;;;;;;;14.88;8.38;;;7.50;99.90;;;;;;5056475;28;20091;-73
2022/02/18 01:44:44;;;;;;;15.18;8.75;;;7.50;99.90;;;;;;5056814;28;20049;-73
2022/02/18 01:47:16;;;;;;;9.18;5.20;;;7.60;99.90;;;;;;5056900;28;20048;-73
2022/02/18 01:49:44;;;;;;;6.90;5.22;;;7.40;99.90;;;;;;5057301;28;20033;-73
2022/02/18 01:52:10;;;;;;;5.53;3.90;;;7.30;99.90;;;;;;5056373;28;20041;-73
2022/02/18 01:54:36;;;;;;;3.90;2.80;;;7.20;99.90;;;;;;5056414;28;20039;-73
2022/02/18 01:57:03;;;;;;;5.88;4.10;;;7.20;99.90;;;;;;5056178;28;20041;-73
2022/02/18 01:59:29;;;;;;;8.10;5.82;;;7.20;99.90;;;;;;5056604;28;20040;-73
2022/02/18 02:01:58;;;;;;;9.50;4.70;;;7.10;99.90;;;;;;5056285;28;20123;-73
2022/02/18 02:04:25;;;;;;;10.05;7.70;;;7.20;99.90;;;;;;5056702;28;20101;-73
2022/02/18 02:06:52;;;;;;;17.63;10.30;;;7.20;99.90;;;;;;5055252;28;20041;-73
2022/02/18 02:09:18;;;;;;;19.00;13.10;;;7.30;1.00;;;;;;5038920;28;20041;-73
2022/02/18 02:11:44;;;;;;;24.02;16.73;;;7.30;1.00;;;;;;5056092;28;20067;-73
2022/02/18 02:14:10;;;;;;;22.55;13.75;;;7.40;1.00;;;;;;5056171;28;20084;-73
2022/02/18 02:16:36;;;;;;;22.90;14.00;;;7.30;1.00;;;;;;5056166;28;20123;-73
2022/02/18 02:19:02;;;;;;;15.52;9.68;;;7.20;99.90;;;;;;5056474;28;20443;-73
2022/02/18 02:21:28;;;;;;;13.10;8.85;;;7.10;99.90;;;;;;5055807;28;20036;-73
2022/02/18 02:23:55;;;;;;;11.73;7.40;;;7.10;99.90;;;;;;5056003;28;20051;-73
2022/02/18 02:26:21;;;;;;;13.27;8.65;;;7.10;99.90;;;;;;5055757;28;20036;-73
2022/02/18 02:28:47;;;;;;;13.82;8.73;;;7.00;99.90;;;;;;5055310;28;20049;-73
2022/02/18 02:31:13;;;;;;;12.90;9.57;;;6.90;99.90;;;;;;5055383;28;20037;-73
2022/02/18 02:33:39;;;;;;;20.48;15.77;;;6.70;99.90;;;;;;5055916;28;20166;-73
2022/02/18 02:36:05;;;;;;;20.70;10.13;;;6.70;99.90;;;;;;5055549;28;20116;-73
2022/02/18 02:38:30;;;;;;;12.23;6.70;;;6.80;99.90;;;;;;5055681;28;20051;-73
2022/02/18 02:40:56;;;;;;;11.05;6.47;;;6.80;99.90;;;;;;5055495;28;20033;-73
2022/02/18 02:43:22;;;;;;;10.55;6.65;;;6.70;99.90;;;;;;5055226;28;20053;-73
2022/02/18 02:45:48;;;;;;;7.32;4.35;;;6.60;99.90;;;;;;5055313;28;20044;-72
2022/02/18 02:48:15;;;;;;;7.90;5.20;;;6.60;99.90;;;;;;5055314;28;20488;-73
2022/02/18 02:50:41;;;;;;;10.15;5.90;;;6.60;99.90;;;;;;5055005;28;20036;-73
2022/02/18 02:53:07;;;;;;;10.50;5.35;;;6.70;99.90;;;;;;5055360;28;20068;-73
2022/02/18 02:55:32;;;;;;;8.60;5.20;;;6.70;99.90;;;;;;5055212;28;20483;-73
2022/02/18 02:57:58;;;;;;;5.55;4.20;;;6.60;99.90;;;;;;5055022;28;20060;-73
2022/02/18 03:00:24;;;;;;;14.15;10.10;;;6.60;99.90;;;;;;5054841;28;20033;-73
2022/02/18 03:02:50;;;;;;;22.00;16.35;;;6.70;99.90;;;;;;5055310;28;20052;-73
2022/02/18 03:05:16;;;;;;;7.68;5.05;;;6.70;99.90;;;;;;5054773;28;20068;-73
2022/02/18 03:07:42;;;;;;;13.27;6.53;;;6.90;99.90;;;;;;5055170;28;20063;-73
2022/02/18 03:10:08;;;;;;;7.63;4.55;;;6.90;19.40;;;;;;5054808;28;20033;-73
2022/02/18 03:12:34;;;;;;;18.55;12.65;;;7.10;60.30;;;;;;5054346;28;20114;-73
2022/02/18 03:15:00;;;;;;;22.50;14.73;;;7.10;1.00;;;;;;5055273;28;20033;-73
2022/02/18 03:17:26;;;;;;;17.35;12.10;;;7.20;1.00;;;;;;5054744;28;20040;-73
2022/02/18 03:19:53;;;;;;;12.35;7.93;;;7.40;2.70;;;;;;5055099;28;20068;-73
2022/02/18 03:22:19;;;;;;;9.25;6.65;;;7.40;1.00;;;;;;5054808;28;20036;-73
2022/02/18 03:24:45;;;;;;;7.97;6.35;;;7.30;99.90;;;;;;5054666;28;20052;-73
2022/02/18 03:27:11;;;;;;;8.35;6.50;;;7.40;99.90;;;;;;5054554;28;20043;-73
2022/02/18 03:29:38;;;;;;;11.02;8.00;;;7.50;99.90;;;;;;5054944;28;20033;-73
2022/02/18 03:32:04;;;;;;;13.38;9.55;;;7.50;99.90;;;;;;5054596;28;20540;-73
2022/02/18 03:34:31;;;;;;;15.60;12.15;;;7.60;99.90;;;;;;5054856;28;20041;-73
2022/02/18 03:36:57;;;;;;;8.65;6.55;;;7.60;99.90;;;;;;5054759;28;20043;-73
2022/02/18 03:39:23;;;;;;;11.95;8.27;;;7.70;99.90;;;;;;5054515;28;20395;-73
2022/02/18 03:41:49;;;;;;;12.63;8.00;;;7.80;99.90;;;;;;5054598;28;20048;-73
2022/02/18 03:44:17;;;;;;;9.95;7.18;;;7.80;99.90;;;;;;5054956;28;20469;-73
2022/02/18 03:46:43;;;;;;;14.60;7.22;;;7.80;99.90;;;;;;5054382;28;20040;-73
2022/02/18 03:49:09;;;;;;;7.25;5.53;;;7.70;99.90;;;;;;5054431;28;20123;-73
2022/02/18 03:51:34;;;;;;;14.50;5.65;;;7.70;99.90;;;;;;5054342;28;20037;-73
2022/02/18 03:54:00;;;;;;;12.27;9.93;;;7.70;99.90;;;;;;5054716;28;20048;-73
2022/02/18 03:56:26;;;;;;;5.70;4.55;;;7.80;99.90;;;;;;5054378;28;20548;-73
2022/02/18 03:58:52;;;;;;;5.40;3.30;;;7.80;99.90;;;;;;5053942;28;20041;-73
2022/02/18 04:01:18;;;;;;;5.05;3.70;;;7.80;99.90;;;;;;5054313;28;20040;-73
2022/02/18 04:03:44;;;;;;;4.53;4.13;;;7.90;99.90;;;;;;5054297;28;20487;-73
2022/02/18 04:06:11;;;;;;;6.82;5.15;;;7.90;99.90;;;;;;5054278;28;20064;-73
2022/02/18 04:08:36;;;;;;;5.95;5.05;;;8.00;99.90;;;;;;5053968;28;20549;-73
2022/02/18 04:11:02;;;;;;;11.95;5.38;;;7.90;99.90;;;;;;5054119;28;20057;-73
2022/02/18 04:13:28;;;;;;;4.75;4.15;;;7.90;99.90;;;;;;5053550;28;20057;-73
2022/02/18 04:15:54;;;;;;;5.30;3.70;;;8.00;99.90;;;;;;5054195;28;20048;-73
2022/02/18 04:18:20;;;;;;;5.45;4.35;;;8.10;99.90;;;;;;5054716;28;20029;-73
2022/02/18 04:20:46;;;;;;;4.97;3.72;;;8.00;99.90;;;;;;5054043;28;20040;-73
2022/02/18 04:23:11;;;;;;;7.63;3.70;;;8.00;99.90;;;;;;5054102;28;20071;-73
2022/02/18 04:25:37;;;;;;;8.32;4.35;;;8.00;99.90;;;;;;5053733;28;20098;-73
2022/02/18 04:28:07;;;;;;;6.70;3.85;;;7.90;99.90;;;;;;5053942;28;20041;-73
2022/02/18 04:30:34;;;;;;;6.38;4.22;;;7.90;99.90;;;;;;5056951;28;20052;-73
2022/02/18 04:33:00;;;;;;;4.38;3.90;;;7.90;99.90;;;;;;5058230;28;20044;-73
2022/02/18 04:35:26;;;;;;;4.13;3.10;;;7.80;99.90;;;;;;5058416;28;20041;-73
2022/02/18 04:37:52;;;;;;;5.82;2.92;;;7.80;99.90;;;;;;5057539;28;20441;-73
2022/02/18 04:40:19;;;;;;;8.70;3.47;;;7.90;99.90;;;;;;5057976;28;20033;-73
2022/02/18 04:42:46;;;;;;;5.63;3.95;;;7.80;99.90;;;;;;5057419;28;20036;-73
2022/02/18 04:45:12;;;;;;;16.80;5.22;;;7.80;99.90;;;;;;5058146;28;20487;-73
2022/02/18 04:47:38;;;;;;;9.35;4.70;;;7.80;99.90;;;;;;5058011;28;20037;-73
2022/02/18 04:50:05;;;;;;;10.25;4.10;;;7.70;99.90;;;;;;5057909;28;20106;-73
2022/02/18 04:52:33;;;;;;;20.75;5.18;;;7.70;99.90;;;;;;5057044;28;20574;-73
2022/02/18 04:55:05;;;;;;;11.27;4.57;;;7.70;1.00;;;;;;5057545;28;20049;-73
2022/02/18 04:57:31;;;;;;;14.25;4.82;;;7.80;1.00;;;;;;5056868;28;20510;-73
2022/02/18 04:59:57;;;;;;;8.18;4.72;;;7.90;1.00;;;;;;5051209;28;20052;-73
2022/02/18 05:02:23;;;;;;;19.98;5.32;;;7.90;1.00;;;;;;5055630;28;20051;-73
2022/02/18 05:04:49;;;;;;;20.48;5.25;;;7.80;1.00;;;;;;5055652;28;20135;-73
2022/02/18 05:07:15;;;;;;;25.25;5.78;;;7.70;1.00;;;;;;5056481;28;20033;-73
2022/02/18 05:09:44;;;;;;;19.13;5.57;;;7.70;23.40;;;;;;5056546;28;20499;-73
2022/02/18 05:12:10;;;;;;;45.70;6.97;;;7.80;71.20;;;;;;5056313;28;20507;-73
2022/02/18 05:14:35;;;;;;;13.45;4.25;;;7.70;1.00;;;;;;5056577;28;20049;-74
2022/02/18 05:17:02;;;;;;;14.60;4.15;;;7.70;57.30;;;;;;5055291;28;20091;-73
2022/02/18 05:19:28;;;;;;;103.95;11.63;;;7.80;71.60;;;;;;5052814;28;20067;-74
2022/02/18 05:21:54;;;;;;;14.30;3.28;;;7.70;1.00;;;;;;5053149;28;20065;-74
2022/02/18 05:24:20;;;;;;;11.85;3.10;;;7.70;48.80;;;;;;5039009;28;20131;-73
2022/02/18 05:26:46;;;;;;;23.02;3.60;;;7.70;56.80;;;;;;5055099;28;20499;-72
2022/02/18 05:29:11;;;;;;;14.50;2.60;;;7.70;63.60;;;;;;5053990;28;20072;-72
2022/02/18 05:31:37;;;;;;;26.95;2.15;;;7.70;49.00;;;;;;5055965;28;20056;-76
2022/02/18 05:34:03;;;;;;;48.75;3.20;;;7.60;74.40;;;;;;5057103;28;20051;-75
2022/02/18 05:36:29;;;;;;;34.28;2.28;;;7.50;1.00;;;;;;5056452;28;20123;-75
2022/02/18 05:38:55;;;;;;;35.72;2.00;;;7.40;1.00;;;;;;5056112;28;20130;-72
2022/02/18 05:41:23;;;;;;;14.77;1.27;;;7.40;15.80;;;;;;5055044;28;20475;-73
2022/02/18 05:43:49;;;;;;;6.65;1.42;;;7.40;62.60;;;;;;5056716;28;20561;-73
2022/02/18 05:46:16;;;;;;;13.00;1.63;;;7.40;91.40;;;;;;5056727;28;20029;-73
2022/02/18 05:48:42;;;;;;;45.70;3.78;;;7.40;97.20;;;;;;5056586;28;20094;-73
2022/02/18 05:51:07;;;;;;;15.02;2.40;;;7.40;54.70;;;;;;5056426;28;20040;-73
2022/02/18 05:53:33;;;;;;;8.60;1.33;;;7.40;89.50;;;;;;5057336;28;20041;-73
2022/02/18 05:55:59;;;;;;;12.50;1.88;;;7.50;99.90;;;;;;5056608;28;20037;-73
2022/02/18 05:58:25;;;;;;;9.23;1.40;;;7.50;93.90;;;;;;5056196;28;20120;-73
2022/02/18 06:00:52;;;;;;;33.50;15.85;;;7.40;60.50;;;;;;5056468;28;20518;-73
2022/02/18 06:03:17;;;;;;;62.38;7.85;;;7.40;49.00;;;;;;5056435;28;20057;-73
2022/02/18 06:05:43;;;;;;;6.35;1.65;;;7.40;1.00;;;;;;5056152;28;20116;-73
2022/02/18 06:08:12;;;;;;;3.28;1.45;;;7.40;66.90;;;;;;5056166;28;20045;-73
2022/02/18 06:10:38;;;;;;;10.02;1.77;;;7.50;99.90;;;;;;5056115;28;20045;-73
2022/02/18 06:13:04;;;;;;;58.97;5.05;;;7.30;1.00;;;;;;5056393;28;20060;-73
2022/02/18 06:15:31;;;;;;;20.40;2.35;;;7.30;1.00;;;;;;5056009;28;20115;-73
2022/02/18 06:17:57;;;;;;;135.25;8.25;;;7.30;92.10;;;;;;5055921;28;20039;-73
2022/02/18 06:20:24;;;;;;;10.90;2.28;;;7.20;1.00;;;;;;5055917;28;20043;-73
2022/02/18 06:22:49;;;;;;;28.23;4.13;;;7.20;1.00;;;;;;5055861;28;20500;-73
2022/02/18 06:25:15;;;;;;;22.65;3.97;;;7.20;6.00;;;;;;5055787;28;20037;-73
2022/02/18 06:27:42;;;;;;;185.15;10.73;;;7.20;98.40;;;;;;5055441;28;20036;-73
2022/02/18 06:30:08;;;;;;;253.48;15.00;;;7.20;68.00;;;;;;5055661;28;20037;-73
2022/02/18 06:32:34;;;;;;;176.00;17.05;;;7.30;99.90;;;;;;5055504;28;20113;-73
2022/02/18 06:35:00;;;;;;;132.10;9.63;;;7.10;35.30;;;;;;5055216;28;20566;-73
2022/02/18 06:37:26;;;;;;;103.10;7.97;;;7.10;1.00;;;;;;5055296;28;20037;-73
2022/02/18 06:39:52;;;;;;;204.73;10.07;;;7.10;1.00;;;;;;5055235;28;20492;-73
2022/02/18 06:42:18;;;;;;;107.45;6.05;;;7.00;1.00;;;;;;5055435;28;20037;-73
2022/02/18 06:44:44;;;;;;;69.43;4.30;;;6.90;1.00;;;;;;5055255;28;20055;-73
2022/02/18 06:47:10;;;;;;;38.53;2.88;;;7.00;99.90;;;;;;5055315;28;20044;-73
2022/02/18 06:49:36;;;;;;;29.35;3.35;;;6.90;1.00;;;;;;5055343;28;20041;-73
2022/02/18 06:52:02;;;;;;;26.42;3.30;;;6.70;1.00;;;;;;5054456;28;20048;-73
2022/02/18 06:54:30;;;;;;;99.25;6.25;;;6.80;1.00;;;;;;5054944;28;20500;-73
2022/02/18 06:57:00;;;;;;;34.20;4.13;;;6.60;1.00;;;;;;5055023;28;20094;-73
2022/02/18 06:59:26;;;;;;;57.05;5.03;;;6.70;20.10;;;;;;5054810;28;20492;-73
2022/02/18 07:01:54;;;;;;;51.80;3.65;;;6.60;1.00;;;;;;5047655;28;20028;-73
2022/02/18 07:04:21;;;;;;;54.30;4.80;;;6.70;95.00;;;;;;5038964;28;20397;-72
2022/02/18 07:06:46;;;;;;;36.58;4.28;;;6.70;1.00;;;;;;5035073;28;20041;-73
2022/02/18 07:09:13;;;;;;;61.50;6.32;;;6.80;1.00;;;;;;5034782;28;20040;-73
2022/02/18 07:11:39;;;;;;;17.75;5.07;;;6.80;1.00;;;;;;5036990;28;20120;-73
2022/02/18 07:14:09;;;;;;;35.38;6.97;;;7.00;1.00;;;;;;5048584;28;20056;-73
2022/02/18 07:16:42;;;;;;;6.43;3.57;;;6.80;99.90;;;;;;5049124;28;20029;-73
2022/02/18 07:19:13;;;;;;;25.67;2.35;;;7.00;1.00;;;;;;5043783;28;20434;-73
2022/02/18 07:21:40;;;;;;;481.58;21.27;;;7.00;99.90;;;;;;5036347;28;20045;-73
2022/02/18 07:24:06;;;;;;;363.35;16.55;;;6.90;99.90;;;;;;5038939;28;20053;-73
2022/02/18 07:26:32;;;;;;;174.00;11.45;;;6.70;99.90;;;;;;5054466;28;20577;-73
2022/02/18 07:28:58;;;;;;;57.95;6.50;;;6.90;1.00;;;;;;5054752;28;20033;-73
2022/02/18 07:31:24;;;;;;;56.13;4.13;;;7.10;1.00;;;;;;5054717;28;20067;-73
2022/02/18 07:33:50;;;;;;;22.15;3.78;;;7.30;99.90;;;;;;5051288;28;20124;-72
2022/02/18 07:36:16;;;;;;;77.22;4.70;;;7.40;99.90;;;;;;5051905;28;20581;-72
2022/02/18 07:38:42;;;;;;;65.03;6.05;;;7.50;99.90;;;;;;5052669;28;20034;-72
2022/02/18 07:41:08;;;;;;;50.33;4.50;;;7.20;99.90;;;;;;5040670;28;20044;-73
2022/02/18 07:43:33;;;;;;;31.85;4.45;;;7.30;99.90;;;;;;5039125;28;20080;-74
2022/02/18 07:46:00;;;;;;;90.60;11.40;;;7.40;99.90;;;;;;5033486;28;20088;-73
2022/02/18 07:48:26;;;;;;;77.45;9.43;;;7.40;99.90;;;;;;5050768;28;20059;-73
2022/02/18 07:50:52;;;;;;;42.92;8.65;;;7.30;99.90;;;;;;5038384;28;20037;-72
2022/02/18 07:53:18;;;;;;;38.25;7.38;;;7.30;99.90;;;;;;5040517;28;20128;-73
2022/02/18 07:55:44;;;;;;;14.23;6.10;;;7.40;99.90;;;;;;5031858;28;21134;-72
2022/02/18 07:58:11;;;;;;;14.50;5.82;;;7.80;99.90;;;;;;5041285;28;20068;-72
2022/02/18 08:00:38;;;;;;;35.33;6.35;;;8.00;99.90;;;;;;5041553;28;20049;-72
2022/02/18 08:03:04;;;;;;;38.42;6.72;;;7.80;99.90;;;;;;5044113;28;20061;-72
2022/02/18 08:05:29;;;;;;;201.55;14.30;;;7.80;99.90;;;;;;5043121;28;20138;-72
2022/02/18 08:07:57;;;;;;;210.38;15.27;;;7.70;99.90;;;;;;5045506;28;20037;-72
2022/02/18 08:10:23;;;;;;;23.23;6.50;;;7.60;99.90;;;;;;5045508;28;20124;-72
2022/02/18 08:12:49;;;;;;;24.08;5.28;;;7.90;99.90;;;;;;5043122;28;20084;-73
2022/02/18 08:15:15;;;;;;;15.82;4.03;;;7.90;99.90;;;;;;5042519;28;20088;-72
2022/02/18 08:17:41;;;;;;;60.05;4.22;;;8.10;99.90;;;;;;5054558;28;20591;-72
2022/02/18 08:20:11;;;;;;;41.10;5.32;;;7.90;99.90;;;;;;5044579;28;20049;-73
2022/02/18 08:22:37;;;;;;;51.90;6.30;;;7.80;99.90;;;;;;5051217;28;20064;-72
2022/02/18 08:25:05;;;;;;;36.42;9.82;;;7.80;99.90;;;;;;5048289;28;20045;-72
2022/02/18 08:27:31;;;;;;;27.95;11.23;;;7.90;99.90;;;;;;5048393;28;20045;-72
2022/02/18 08:29:57;;;;;;;23.70;10.63;;;7.80;99.90;;;;;;5051132;28;20052;-72
2022/02/18 08:32:23;;;;;;;25.60;13.38;;;8.20;99.90;;;;;;5048649;28;20033;-72
2022/02/18 08:34:48;;;;;;;27.90;13.52;;;8.20;99.90;;;;;;5058175;28;20391;-72
2022/02/18 08:37:14;;;;;;;27.30;13.30;;;8.50;99.90;;;;;;5057713;28;20037;-73
2022/02/18 08:39:40;;;;;;;28.52;14.07;;;8.50;99.90;;;;;;5053555;28;20047;-73
2022/02/18 08:42:10;;;;;;;21.67;11.70;;;8.30;79.40;;;;;;5054803;28;20083;-73
2022/02/18 08:44:36;;;;;;;24.38;11.70;;;8.40;99.90;;;;;;5056007;28;20049;-73
2022/02/18 08:47:02;;;;;;;29.48;13.65;;;8.20;99.90;;;;;;5057257;28;20126;-73
2022/02/18 08:49:27;;;;;;;30.20;13.93;;;8.00;99.90;;;;;;5057554;28;20036;-73
2022/02/18 08:51:53;;;;;;;30.17;14.20;;;7.80;99.90;;;;;;5046191;28;20129;-73
2022/02/18 08:54:20;;;;;;;26.13;12.90;;;7.70;99.90;;;;;;5044717;28;20127;-73
2022/02/18 08:56:46;;;;;;;29.60;14.40;;;7.70;99.90;;;;;;5037718;28;20118;-73
2022/02/18 08:59:12;;;;;;;24.65;13.82;;;7.80;99.90;;;;;;5037148;28;20053;-73
2022/02/18 09:01:38;;;;;;;26.45;15.68;;;7.70;99.90;;;;;;5037541;28;20064;-73
2022/02/18 09:04:04;;;;;;;25.73;13.60;;;7.80;99.90;;;;;;5037333;28;20496;-73
2022/02/18 09:06:31;;;;;;;22.35;13.07;;;7.70;99.90;;;;;;5037844;28;20038;-73
2022/02/18 09:08:58;;;;;;;16.13;11.20;;;7.70;99.90;;;;;;5036942;28;20044;-73
2022/02/18 09:11:23;;;;;;;18.50;12.68;;;7.90;99.90;;;;;;5047963;28;20041;-74
2022/02/18 09:13:49;;;;;;;29.48;20.13;;;7.90;99.90;;;;;;5056678;28;20114;-74
2022/02/18 09:16:17;;;;;;;25.65;20.05;;;8.00;99.90;;;;;;5056747;28;20036;-74
2022/02/18 09:18:43;;;;;;;31.83;26.52;;;8.20;99.90;;;;;;5056964;28;20039;-74
2022/02/18 09:21:09;;;;;;;36.17;29.65;;;8.20;99.90;;;;;;5056979;28;20041;-74
2022/02/18 09:23:36;;;;;;;27.83;23.88;;;8.20;99.90;;;;;;5056995;28;20150;-74
2022/02/18 09:26:02;;;;;;;30.20;24.30;;;8.30;99.90;;;;;;5056884;28;20029;-74
2022/02/18 09:28:29;;;;;;;35.85;29.17;;;8.40;99.90;;;;;;5056379;28;20033;-74
2022/02/18 09:30:56;;;;;;;44.33;39.17;;;8.50;99.90;;;;;;5056785;28;20037;-73
2022/02/18 09:33:23;;;;;;;49.80;42.03;;;8.60;99.90;;;;;;5056513;28;20037;-74
2022/02/18 09:35:49;;;;;;;52.50;45.55;;;8.80;99.90;;;;;;5056614;28;20116;-73
2022/02/18 09:38:16;;;;;;;47.95;38.40;;;8.80;99.90;;;;;;5056355;28;20036;-74
2022/02/18 09:40:42;;;;;;;50.80;41.88;;;8.90;99.90;;;;;;5056134;28;20036;-74
2022/02/18 09:43:08;;;;;;;44.35;38.42;;;9.10;99.90;;;;;;5056581;28;20507;-74
2022/02/18 09:45:34;;;;;;;38.13;31.65;;;9.10;99.90;;;;;;5056316;28;20525;-74
2022/02/18 09:48:01;;;;;;;33.97;26.30;;;9.30;99.90;;;;;;5044014;28;20049;-74
2022/02/18 09:50:28;;;;;;;28.50;23.13;;;9.40;99.90;;;;;;5036587;28;20041;-74
2022/02/18 09:52:54;;;;;;;21.63;17.67;;;9.50;99.90;;;;;;5036191;28;20090;-74
2022/02/18 09:55:20;;;;;;;16.38;11.85;;;9.60;99.90;;;;;;5036380;28;20128;-71
2022/02/18 09:57:51;;;;;;;9.48;6.50;;;9.70;99.90;;;;;;5037999;28;20132;-73
2022/02/18 10:00:18;;;;;;;40.28;23.55;;;9.80;99.90;;;;;;5036148;28;20037;-73
2022/02/18 10:02:44;;;;;;;13.75;8.40;;;10.00;99.90;;;;;;5019158;28;20439;-73
2022/02/18 10:05:10;;;;;;;13.35;7.18;;;10.10;99.90;;;;;;5036167;28;20041;-73
2022/02/18 10:08:02;;;;;;;7.45;5.70;;;10.20;99.90;;;;;;5035940;28;20071;-74
2022/02/18 10:10:27;;;;;;;3.10;1.55;;;10.40;99.90;;;;;;5026838;28;20116;-74
2022/02/18 10:12:53;;;;;;;2.45;1.73;;;10.60;99.90;;;;;;5035876;28;20183;-73
2022/02/18 10:15:19;;;;;;;3.13;2.38;;;10.70;99.90;;;;;;5035900;28;20041;-73
2022/02/18 10:17:46;;;;;;;10.70;7.30;;;10.80;99.90;;;;;;5035998;28;20124;-74
2022/02/18 10:20:20;;;;;;;6.15;2.00;;;10.80;99.90;;;;;;5035985;28;20033;-74
2022/02/18 10:23:02;;;;;;;2.75;1.58;;;11.00;99.90;;;;;;5036539;28;20116;-73
2022/02/18 10:25:31;;;;;;;1.90;1.40;;;11.00;99.90;;;;;;5035570;28;20520;-73
2022/02/18 10:27:58;;;;;;;1.30;1.00;;;11.00;99.90;;;;;;5034863;28;20120;-74
2022/02/18 10:30:30;;;;;;;0.98;0.90;;;11.00;99.90;;;;;;5036156;28;20045;-73
2022/02/18 10:33:11;;;;;;;3.35;0.98;;;11.00;99.90;;;;;;5035756;28;20037;-73
2022/02/18 10:35:38;;;;;;;2.00;1.40;;;11.10;99.90;;;;;;5035141;28;20076;-73
2022/02/18 10:38:05;;;;;;;1.35;1.10;;;11.20;99.90;;;;;;5035391;28;20106;-73
2022/02/18 10:40:31;;;;;;;1.42;1.02;;;11.30;99.90;;;;;;5035562;28;20412;-73
2022/02/18 10:43:07;;;;;;;0.93;0.75;;;11.50;99.90;;;;;;5035075;28;20041;-74
2022/02/18 10:45:33;;;;;;;1.60;0.90;;;11.50;84.30;;;;;;5035754;28;20049;-73
2022/02/18 10:48:11;;;;;;;2.10;0.90;;;11.80;63.60;;;;;;5035524;28;20034;-73
2022/02/18 10:50:37;;;;;;;7.15;3.72;;;12.00;66.00;;;;;;5035292;28;20033;-74
2022/02/18 10:53:15;;;;;;;6.22;3.90;;;12.00;28.90;;;;;;5035963;28;20112;-73
2022/02/18 10:55:58;;;;;;;5.30;3.63;;;12.30;11.30;;;;;;5030571;28;20048;-73
2022/02/18 10:58:41;;;;;;;3.10;1.80;;;12.40;1.00;;;;;;5034699;28;20029;-73
2022/02/18 11:01:17;;;;;;;2.97;1.88;;;12.60;1.00;;;;;;5034374;28;20454;-73
2022/02/18 11:03:48;;;;;;;3.15;1.90;;;12.70;1.00;;;;;;5033760;28;20048;-73
2022/02/18 11:06:28;;;;;;;2.20;1.40;;;12.70;1.00;;;;;;5023367;28;20048;-71
2022/02/18 11:08:57;;;;;;;3.03;1.13;;;13.00;1.00;;;;;;5032057;28;20124;-72
2022/02/18 11:11:34;;;;;;;3.20;1.55;;;13.10;1.00;;;;;;5034621;28;20060;-72
2022/02/18 11:14:01;;;;;;;5.93;3.00;;;13.10;1.00;;;;;;5033861;28;20073;-72
2022/02/18 11:16:29;;;;;;;1.27;1.10;;;13.20;1.00;;;;;;5034648;28;20091;-73
2022/02/18 11:18:56;;;;;;;3.50;1.30;;;13.10;1.00;;;;;;5042715;28;20500;-73
2022/02/18 11:21:22;;;;;;;1.98;1.20;;;13.10;1.00;;;;;;5053840;28;20033;-73
2022/02/18 11:23:49;;;;;;;1.80;1.23;;;13.30;1.00;;;;;;5054706;28;20080;-73
2022/02/18 11:26:17;;;;;;;1.85;1.20;;;13.50;1.00;;;;;;5053735;28;20041;-73
2022/02/18 11:28:44;;;;;;;1.30;1.10;;;13.80;1.00;;;;;;5053975;28;20128;-74
2022/02/18 11:31:30;;;;;;;1.98;1.35;;;13.90;1.00;;;;;;5053438;28;20040;-73
2022/02/18 11:34:20;;;;;;;1.60;1.40;;;13.80;1.00;;;;;;5054216;28;20041;-73
2022/02/18 11:37:13;;;;;;;1.30;1.20;;;13.80;1.00;;;;;;5052849;28;20032;-74
2022/02/18 11:39:58;;;;;;;2.05;1.30;;;13.50;1.00;;;;;;5054061;28;20040;-73
2022/02/18 11:42:46;;;;;;;2.63;1.30;;;13.80;1.00;;;;;;5053612;28;20029;-71
2022/02/18 11:45:14;;;;;;;2.15;1.20;;;13.70;1.00;;;;;;5053895;28;20048;-73
2022/02/18 11:47:40;;;;;;;1.27;1.17;;;13.70;1.00;;;;;;5053644;28;20037;-72
2022/02/18 11:50:14;;;;;;;3.35;2.17;;;13.70;1.00;;;;;;5051254;28;20069;-73
2022/02/18 11:52:43;;;;;;;3.38;1.52;;;13.90;1.00;;;;;;5053543;28;20102;-72
2022/02/18 11:55:29;;;;;;;4.30;2.67;;;14.00;1.00;;;;;;5053797;28;20037;-72
2022/02/18 11:58:05;;;;;;;8.18;4.55;;;14.20;1.00;;;;;;5053507;28;20036;-72
2022/02/18 12:00:42;;;;;;;5.57;1.90;;;14.40;1.00;;;;;;5053451;28;20106;-72
2022/02/18 12:03:15;;;;;;;7.40;2.08;;;14.60;1.00;;;;;;5054526;28;20090;-72
2022/02/18 12:06:10;;;;;;;3.78;1.60;;;14.60;1.00;;;;;;5053305;28;20069;-72
2022/02/18 12:08:41;;;;;;;1.70;1.30;;;14.40;1.00;;;;;;5053264;28;20029;-72
2022/02/18 12:11:08;;;;;;;5.10;1.40;;;14.50;1.00;;;;;;5053695;28;20044;-72
2022/02/18 12:13:54;;;;;;;2.33;1.50;;;14.70;1.00;;;;;;5053165;28;20057;-72
2022/02/18 12:16:22;;;;;;;2.33;1.50;;;14.50;1.00;;;;;;5053793;28;20045;-73
2022/02/18 12:19:05;;;;;;;1.73;1.10;;;14.50;1.00;;;;;;5053380;28;20048;-73
2022/02/18 12:21:31;;;;;;;3.15;1.42;;;14.70;1.00;;;;;;5053163;28;20037;-72
2022/02/18 12:24:17;;;;;;;2.15;1.50;;;15.20;1.00;;;;;;5053372;28;20060;-72
2022/02/18 12:26:43;;;;;;;1.88;1.70;;;15.40;1.00;;;;;;5053100;28;20036;-72
2022/02/18 12:29:17;;;;;;;3.35;1.83;;;15.30;1.00;;;;;;5053413;28;20041;-72
2022/02/18 12:31:54;;;;;;;1.98;1.55;;;15.30;1.00;;;;;;5052944;28;20033;-72
2022/02/18 12:34:26;;;;;;;4.35;1.30;;;15.30;1.00;;;;;;5053482;28;20051;-73
2022/02/18 12:36:54;;;;;;;3.03;1.42;;;15.30;1.00;;;;;;5052436;28;20029;-72
2022/02/18 12:39:42;;;;;;;2.25;1.33;;;15.30;1.00;;;;;;5053061;28;20037;-72
2022/02/18 12:42:14;;;;;;;2.72;1.27;;;15.70;1.00;;;;;;5053526;28;20032;-72
2022/02/18 12:44:53;;;;;;;2.88;1.50;;;15.80;1.00;;;;;;5052690;28;20037;-72
2022/02/18 12:47:21;;;;;;;2.50;1.52;;;15.30;1.00;;;;;;5053503;28;20047;-72
2022/02/18 12:49:48;;;;;;;4.43;1.50;;;15.30;1.00;;;;;;5053003;28;20120;-73
2022/02/18 12:52:14;;;;;;;2.72;1.38;;;15.20;1.00;;;;;;5056996;28;20040;-73